sensor_id;sensor_type;location;lat;lon;timestamp;P1;durP1;ratioP1;P2;durP2;ratioP2
18142;SDS011;9197;50.930;3.140;2023-05-23T00:01:03;51.90;;;23.63;;
18142;SDS011;9197;50.930;3.140;2023-05-23T00:03:32;44.47;;;23.43;;
18142;SDS011;9197;50.930;3.140;2023-05-23T00:06:00;45.80;;;24.07;;
18142;SDS011;9197;50.930;3.140;2023-05-23T00:08:28;49.87;;;25.27;;
18142;SDS011;9197;50.930;3.140;2023-05-23T00:10:57;48.80;;;25.50;;
18142;SDS011;9197;50.930;3.140;2023-05-23T00:13:24;41.10;;;24.07;;
18142;SDS011;9197;50.930;3.140;2023-05-23T00:15:52;40.20;;;25.40;;
18142;SDS011;9197;50.930;3.140;2023-05-23T00:18:19;50.10;;;25.37;;
18142;SDS011;9197;50.930;3.140;2023-05-23T00:20:48;48.53;;;26.43;;
18142;SDS011;9197;50.930;3.140;2023-05-23T00:23:16;41.73;;;23.63;;
18142;SDS011;9197;50.930;3.140;2023-05-23T00:25:44;44.53;;;24.60;;
18142;SDS011;9197;50.930;3.140;2023-05-23T00:28:18;55.23;;;27.53;;
18142;SDS011;9197;50.930;3.140;2023-05-23T00:30:45;50.60;;;25.47;;
18142;SDS011;9197;50.930;3.140;2023-05-23T00:33:13;53.50;;;26.80;;
18142;SDS011;9197;50.930;3.140;2023-05-23T00:35:40;49.77;;;25.17;;
18142;SDS011;9197;50.930;3.140;2023-05-23T00:38:08;55.33;;;26.47;;
18142;SDS011;9197;50.930;3.140;2023-05-23T00:40:35;46.23;;;25.57;;
18142;SDS011;9197;50.930;3.140;2023-05-23T00:43:03;42.27;;;26.23;;
18142;SDS011;9197;50.930;3.140;2023-05-23T00:45:31;49.10;;;26.83;;
18142;SDS011;9197;50.930;3.140;2023-05-23T00:47:59;49.37;;;25.27;;
18142;SDS011;9197;50.930;3.140;2023-05-23T00:50:26;37.37;;;22.07;;
18142;SDS011;9197;50.930;3.140;2023-05-23T00:52:55;31.80;;;19.83;;
18142;SDS011;9197;50.930;3.140;2023-05-23T00:55:23;35.70;;;20.47;;
18142;SDS011;9197;50.930;3.140;2023-05-23T00:57:51;34.53;;;19.97;;
18142;SDS011;9197;50.930;3.140;2023-05-23T01:00:19;29.47;;;19.63;;
18142;SDS011;9197;50.930;3.140;2023-05-23T01:02:49;29.47;;;17.93;;
18142;SDS011;9197;50.930;3.140;2023-05-23T01:05:17;34.93;;;18.03;;
18142;SDS011;9197;50.930;3.140;2023-05-23T01:07:46;31.30;;;18.37;;
18142;SDS011;9197;50.930;3.140;2023-05-23T01:10:14;26.73;;;17.47;;
18142;SDS011;9197;50.930;3.140;2023-05-23T01:12:45;28.47;;;19.40;;
18142;SDS011;9197;50.930;3.140;2023-05-23T01:15:14;48.47;;;22.27;;
18142;SDS011;9197;50.930;3.140;2023-05-23T01:17:43;39.07;;;24.53;;
18142;SDS011;9197;50.930;3.140;2023-05-23T01:20:14;38.73;;;23.03;;
18142;SDS011;9197;50.930;3.140;2023-05-23T01:22:48;38.20;;;23.20;;
18142;SDS011;9197;50.930;3.140;2023-05-23T01:25:23;43.90;;;24.60;;
18142;SDS011;9197;50.930;3.140;2023-05-23T01:27:56;45.83;;;21.83;;
18142;SDS011;9197;50.930;3.140;2023-05-23T01:30:23;34.50;;;20.20;;
18142;SDS011;9197;50.930;3.140;2023-05-23T01:32:52;35.53;;;20.43;;
18142;SDS011;9197;50.930;3.140;2023-05-23T01:35:21;39.23;;;20.13;;
18142;SDS011;9197;50.930;3.140;2023-05-23T01:37:51;45.67;;;22.00;;
18142;SDS011;9197;50.930;3.140;2023-05-23T01:40:18;33.43;;;19.60;;
18142;SDS011;9197;50.930;3.140;2023-05-23T01:42:46;30.97;;;18.63;;
18142;SDS011;9197;50.930;3.140;2023-05-23T01:45:15;35.73;;;17.17;;
18142;SDS011;9197;50.930;3.140;2023-05-23T01:47:42;31.57;;;16.60;;
18142;SDS011;9197;50.930;3.140;2023-05-23T01:50:10;37.50;;;18.30;;
18142;SDS011;9197;50.930;3.140;2023-05-23T01:52:38;33.57;;;19.30;;
18142;SDS011;9197;50.930;3.140;2023-05-23T01:55:06;29.13;;;16.10;;
18142;SDS011;9197;50.930;3.140;2023-05-23T01:57:36;34.23;;;16.90;;
18142;SDS011;9197;50.930;3.140;2023-05-23T02:00:04;27.10;;;16.33;;
18142;SDS011;9197;50.930;3.140;2023-05-23T02:02:33;31.63;;;17.07;;
18142;SDS011;9197;50.930;3.140;2023-05-23T02:05:01;37.27;;;17.73;;
18142;SDS011;9197;50.930;3.140;2023-05-23T02:07:29;29.63;;;16.40;;
18142;SDS011;9197;50.930;3.140;2023-05-23T02:09:56;30.63;;;15.93;;
18142;SDS011;9197;50.930;3.140;2023-05-23T02:12:23;27.83;;;16.80;;
18142;SDS011;9197;50.930;3.140;2023-05-23T02:14:52;29.60;;;15.63;;
18142;SDS011;9197;50.930;3.140;2023-05-23T02:17:19;31.83;;;15.63;;
18142;SDS011;9197;50.930;3.140;2023-05-23T02:19:49;34.20;;;16.40;;
18142;SDS011;9197;50.930;3.140;2023-05-23T02:22:17;35.70;;;14.67;;
18142;SDS011;9197;50.930;3.140;2023-05-23T02:24:44;32.97;;;16.37;;
18142;SDS011;9197;50.930;3.140;2023-05-23T02:27:11;36.43;;;14.40;;
18142;SDS011;9197;50.930;3.140;2023-05-23T02:29:39;26.03;;;14.03;;
18142;SDS011;9197;50.930;3.140;2023-05-23T02:32:06;27.77;;;14.83;;
18142;SDS011;9197;50.930;3.140;2023-05-23T02:34:33;29.77;;;16.00;;
18142;SDS011;9197;50.930;3.140;2023-05-23T02:37:03;35.50;;;14.73;;
18142;SDS011;9197;50.930;3.140;2023-05-23T02:39:31;26.23;;;13.77;;
18142;SDS011;9197;50.930;3.140;2023-05-23T02:41:58;23.70;;;13.37;;
18142;SDS011;9197;50.930;3.140;2023-05-23T02:44:26;29.57;;;13.93;;
18142;SDS011;9197;50.930;3.140;2023-05-23T02:46:53;22.23;;;13.73;;
18142;SDS011;9197;50.930;3.140;2023-05-23T02:49:20;28.50;;;14.80;;
18142;SDS011;9197;50.930;3.140;2023-05-23T02:51:48;34.37;;;14.27;;
18142;SDS011;9197;50.930;3.140;2023-05-23T02:54:17;28.50;;;13.23;;
18142;SDS011;9197;50.930;3.140;2023-05-23T02:56:44;24.53;;;13.47;;
18142;SDS011;9197;50.930;3.140;2023-05-23T02:59:12;29.37;;;13.50;;
18142;SDS011;9197;50.930;3.140;2023-05-23T03:01:39;27.00;;;14.17;;
18142;SDS011;9197;50.930;3.140;2023-05-23T03:04:07;29.33;;;14.33;;
18142;SDS011;9197;50.930;3.140;2023-05-23T03:06:34;29.33;;;14.83;;
18142;SDS011;9197;50.930;3.140;2023-05-23T03:09:01;31.00;;;15.03;;
18142;SDS011;9197;50.930;3.140;2023-05-23T03:11:30;34.57;;;14.40;;
18142;SDS011;9197;50.930;3.140;2023-05-23T03:13:57;32.13;;;15.83;;
18142;SDS011;9197;50.930;3.140;2023-05-23T03:16:25;29.37;;;15.03;;
18142;SDS011;9197;50.930;3.140;2023-05-23T03:18:52;30.80;;;13.73;;
18142;SDS011;9197;50.930;3.140;2023-05-23T03:21:19;31.33;;;13.70;;
18142;SDS011;9197;50.930;3.140;2023-05-23T03:23:47;32.43;;;14.90;;
18142;SDS011;9197;50.930;3.140;2023-05-23T03:26:14;26.33;;;13.63;;
18142;SDS011;9197;50.930;3.140;2023-05-23T03:28:43;33.13;;;13.47;;
18142;SDS011;9197;50.930;3.140;2023-05-23T03:31:10;27.57;;;12.17;;
18142;SDS011;9197;50.930;3.140;2023-05-23T03:33:38;33.00;;;13.60;;
18142;SDS011;9197;50.930;3.140;2023-05-23T03:36:05;30.77;;;13.60;;
18142;SDS011;9197;50.930;3.140;2023-05-23T03:38:33;27.17;;;11.77;;
18142;SDS011;9197;50.930;3.140;2023-05-23T03:41:00;28.10;;;13.40;;
18142;SDS011;9197;50.930;3.140;2023-05-23T03:43:27;25.30;;;11.07;;
18142;SDS011;9197;50.930;3.140;2023-05-23T03:45:56;29.33;;;12.53;;
18142;SDS011;9197;50.930;3.140;2023-05-23T03:48:23;28.77;;;12.30;;
18142;SDS011;9197;50.930;3.140;2023-05-23T03:50:51;25.67;;;12.17;;
18142;SDS011;9197;50.930;3.140;2023-05-23T03:53:18;24.23;;;10.90;;
18142;SDS011;9197;50.930;3.140;2023-05-23T03:55:45;26.40;;;10.93;;
18142;SDS011;9197;50.930;3.140;2023-05-23T03:58:13;29.73;;;12.70;;
18142;SDS011;9197;50.930;3.140;2023-05-23T04:00:40;26.57;;;12.57;;
18142;SDS011;9197;50.930;3.140;2023-05-23T04:03:09;27.93;;;12.60;;
18142;SDS011;9197;50.930;3.140;2023-05-23T04:05:38;23.23;;;10.83;;
18142;SDS011;9197;50.930;3.140;2023-05-23T04:08:05;22.57;;;11.70;;
18142;SDS011;9197;50.930;3.140;2023-05-23T04:10:33;14.50;;;8.57;;
18142;SDS011;9197;50.930;3.140;2023-05-23T04:13:01;28.80;;;11.80;;
18142;SDS011;9197;50.930;3.140;2023-05-23T04:15:28;27.17;;;10.97;;
18142;SDS011;9197;50.930;3.140;2023-05-23T04:17:58;24.23;;;10.37;;
18142;SDS011;9197;50.930;3.140;2023-05-23T04:20:27;25.63;;;11.43;;
18142;SDS011;9197;50.930;3.140;2023-05-23T04:22:54;25.20;;;11.77;;
18142;SDS011;9197;50.930;3.140;2023-05-23T04:25:22;21.83;;;11.13;;
18142;SDS011;9197;50.930;3.140;2023-05-23T04:27:49;25.00;;;11.10;;
18142;SDS011;9197;50.930;3.140;2023-05-23T04:30:16;18.37;;;9.87;;
18142;SDS011;9197;50.930;3.140;2023-05-23T04:32:43;22.60;;;10.27;;
18142;SDS011;9197;50.930;3.140;2023-05-23T04:35:11;22.97;;;10.57;;
18142;SDS011;9197;50.930;3.140;2023-05-23T04:37:40;20.63;;;10.83;;
18142;SDS011;9197;50.930;3.140;2023-05-23T04:40:10;22.50;;;10.77;;
18142;SDS011;9197;50.930;3.140;2023-05-23T04:42:38;23.40;;;11.17;;
18142;SDS011;9197;50.930;3.140;2023-05-23T04:45:09;26.03;;;11.63;;
18142;SDS011;9197;50.930;3.140;2023-05-23T04:47:36;25.30;;;10.70;;
18142;SDS011;9197;50.930;3.140;2023-05-23T04:50:04;28.60;;;11.33;;
18142;SDS011;9197;50.930;3.140;2023-05-23T04:52:31;20.57;;;9.77;;
18142;SDS011;9197;50.930;3.140;2023-05-23T04:55:00;15.73;;;9.23;;
18142;SDS011;9197;50.930;3.140;2023-05-23T04:57:28;20.17;;;10.20;;
18142;SDS011;9197;50.930;3.140;2023-05-23T04:59:55;23.30;;;11.00;;
18142;SDS011;9197;50.930;3.140;2023-05-23T05:02:22;17.63;;;10.60;;
18142;SDS011;9197;50.930;3.140;2023-05-23T05:04:51;16.97;;;10.60;;
18142;SDS011;9197;50.930;3.140;2023-05-23T05:07:18;24.20;;;10.73;;
18142;SDS011;9197;50.930;3.140;2023-05-23T05:09:45;19.87;;;10.67;;
18142;SDS011;9197;50.930;3.140;2023-05-23T05:12:14;20.73;;;9.17;;
18142;SDS011;9197;50.930;3.140;2023-05-23T05:14:42;22.20;;;10.00;;
18142;SDS011;9197;50.930;3.140;2023-05-23T05:17:09;21.37;;;10.43;;
18142;SDS011;9197;50.930;3.140;2023-05-23T05:19:37;17.50;;;8.57;;
18142;SDS011;9197;50.930;3.140;2023-05-23T05:22:04;19.73;;;7.00;;
18142;SDS011;9197;50.930;3.140;2023-05-23T05:24:32;16.63;;;7.83;;
18142;SDS011;9197;50.930;3.140;2023-05-23T05:26:59;25.40;;;9.30;;
18142;SDS011;9197;50.930;3.140;2023-05-23T05:29:28;23.00;;;9.27;;
18142;SDS011;9197;50.930;3.140;2023-05-23T05:31:55;14.97;;;7.70;;
18142;SDS011;9197;50.930;3.140;2023-05-23T05:34:22;21.43;;;8.07;;
18142;SDS011;9197;50.930;3.140;2023-05-23T05:36:51;15.90;;;7.43;;
18142;SDS011;9197;50.930;3.140;2023-05-23T05:39:21;17.33;;;7.60;;
18142;SDS011;9197;50.930;3.140;2023-05-23T05:41:48;16.83;;;7.77;;
18142;SDS011;9197;50.930;3.140;2023-05-23T05:44:16;20.37;;;8.47;;
18142;SDS011;9197;50.930;3.140;2023-05-23T05:46:45;20.13;;;7.57;;
18142;SDS011;9197;50.930;3.140;2023-05-23T05:49:12;17.90;;;8.30;;
18142;SDS011;9197;50.930;3.140;2023-05-23T05:51:39;16.03;;;7.70;;
18142;SDS011;9197;50.930;3.140;2023-05-23T05:54:07;21.97;;;8.07;;
18142;SDS011;9197;50.930;3.140;2023-05-23T05:56:34;20.57;;;8.87;;
18142;SDS011;9197;50.930;3.140;2023-05-23T05:59:02;21.37;;;8.80;;
18142;SDS011;9197;50.930;3.140;2023-05-23T06:01:29;21.63;;;8.63;;
18142;SDS011;9197;50.930;3.140;2023-05-23T06:04:00;16.30;;;9.57;;
18142;SDS011;9197;50.930;3.140;2023-05-23T06:06:27;19.30;;;9.10;;
18142;SDS011;9197;50.930;3.140;2023-05-23T06:08:55;22.97;;;8.80;;
18142;SDS011;9197;50.930;3.140;2023-05-23T06:11:23;19.63;;;10.20;;
18142;SDS011;9197;50.930;3.140;2023-05-23T06:13:50;22.83;;;9.80;;
18142;SDS011;9197;50.930;3.140;2023-05-23T06:16:18;26.60;;;9.83;;
18142;SDS011;9197;50.930;3.140;2023-05-23T06:18:45;15.37;;;8.57;;
18142;SDS011;9197;50.930;3.140;2023-05-23T06:21:14;16.63;;;8.30;;
18142;SDS011;9197;50.930;3.140;2023-05-23T06:23:41;16.27;;;8.77;;
18142;SDS011;9197;50.930;3.140;2023-05-23T06:26:09;20.53;;;9.27;;
18142;SDS011;9197;50.930;3.140;2023-05-23T06:28:36;22.53;;;9.10;;
18142;SDS011;9197;50.930;3.140;2023-05-23T06:31:04;15.27;;;8.70;;
18142;SDS011;9197;50.930;3.140;2023-05-23T06:33:33;17.33;;;9.20;;
18142;SDS011;9197;50.930;3.140;2023-05-23T06:36:01;15.93;;;8.87;;
18142;SDS011;9197;50.930;3.140;2023-05-23T06:38:30;18.97;;;9.70;;
18142;SDS011;9197;50.930;3.140;2023-05-23T06:40:58;18.07;;;9.43;;
18142;SDS011;9197;50.930;3.140;2023-05-23T06:43:27;16.93;;;9.20;;
18142;SDS011;9197;50.930;3.140;2023-05-23T06:45:55;18.43;;;8.97;;
18142;SDS011;9197;50.930;3.140;2023-05-23T06:48:22;14.77;;;8.67;;
18142;SDS011;9197;50.930;3.140;2023-05-23T06:50:49;16.20;;;7.43;;
18142;SDS011;9197;50.930;3.140;2023-05-23T06:53:17;20.20;;;8.43;;
18142;SDS011;9197;50.930;3.140;2023-05-23T06:55:46;12.73;;;8.90;;
18142;SDS011;9197;50.930;3.140;2023-05-23T06:58:13;16.07;;;8.17;;
18142;SDS011;9197;50.930;3.140;2023-05-23T07:00:40;21.07;;;9.27;;
18142;SDS011;9197;50.930;3.140;2023-05-23T07:03:08;15.47;;;8.67;;
18142;SDS011;9197;50.930;3.140;2023-05-23T07:05:35;14.30;;;9.10;;
18142;SDS011;9197;50.930;3.140;2023-05-23T07:08:02;17.47;;;8.03;;
18142;SDS011;9197;50.930;3.140;2023-05-23T07:10:30;17.37;;;8.03;;
18142;SDS011;9197;50.930;3.140;2023-05-23T07:13:00;14.07;;;7.33;;
18142;SDS011;9197;50.930;3.140;2023-05-23T07:15:28;17.33;;;8.13;;
18142;SDS011;9197;50.930;3.140;2023-05-23T07:17:55;14.50;;;7.67;;
18142;SDS011;9197;50.930;3.140;2023-05-23T07:20:23;15.77;;;9.00;;
18142;SDS011;9197;50.930;3.140;2023-05-23T07:22:50;16.27;;;7.37;;
18142;SDS011;9197;50.930;3.140;2023-05-23T07:25:17;18.67;;;7.87;;
18142;SDS011;9197;50.930;3.140;2023-05-23T07:27:47;19.80;;;9.20;;
18142;SDS011;9197;50.930;3.140;2023-05-23T07:30:16;19.43;;;7.57;;
18142;SDS011;9197;50.930;3.140;2023-05-23T07:32:44;11.90;;;6.60;;
18142;SDS011;9197;50.930;3.140;2023-05-23T07:35:12;14.97;;;6.77;;
18142;SDS011;9197;50.930;3.140;2023-05-23T07:37:39;13.50;;;6.50;;
18142;SDS011;9197;50.930;3.140;2023-05-23T07:40:07;15.67;;;5.63;;
18142;SDS011;9197;50.930;3.140;2023-05-23T07:42:34;9.97;;;5.67;;
18142;SDS011;9197;50.930;3.140;2023-05-23T07:45:02;13.00;;;5.17;;
18142;SDS011;9197;50.930;3.140;2023-05-23T07:47:31;8.03;;;3.70;;
18142;SDS011;9197;50.930;3.140;2023-05-23T07:49:58;9.10;;;3.80;;
18142;SDS011;9197;50.930;3.140;2023-05-23T07:52:26;13.33;;;4.33;;
18142;SDS011;9197;50.930;3.140;2023-05-23T07:54:53;10.37;;;4.17;;
18142;SDS011;9197;50.930;3.140;2023-05-23T07:57:21;7.07;;;3.33;;
18142;SDS011;9197;50.930;3.140;2023-05-23T07:59:49;9.57;;;3.60;;
18142;SDS011;9197;50.930;3.140;2023-05-23T08:02:16;8.90;;;3.23;;
18142;SDS011;9197;50.930;3.140;2023-05-23T08:04:45;8.17;;;3.53;;
18142;SDS011;9197;50.930;3.140;2023-05-23T08:07:14;6.57;;;2.80;;
18142;SDS011;9197;50.930;3.140;2023-05-23T08:09:41;11.37;;;4.67;;
18142;SDS011;9197;50.930;3.140;2023-05-23T08:12:09;8.30;;;3.20;;
18142;SDS011;9197;50.930;3.140;2023-05-23T08:14:36;6.50;;;3.60;;
18142;SDS011;9197;50.930;3.140;2023-05-23T08:17:03;8.70;;;3.10;;
18142;SDS011;9197;50.930;3.140;2023-05-23T08:19:31;7.40;;;3.17;;
18142;SDS011;9197;50.930;3.140;2023-05-23T08:22:00;6.57;;;2.77;;
18142;SDS011;9197;50.930;3.140;2023-05-23T08:24:28;5.90;;;3.43;;
18142;SDS011;9197;50.930;3.140;2023-05-23T08:26:58;6.17;;;3.13;;
18142;SDS011;9197;50.930;3.140;2023-05-23T08:29:25;5.80;;;3.33;;
18142;SDS011;9197;50.930;3.140;2023-05-23T08:31:53;8.30;;;3.23;;
18142;SDS011;9197;50.930;3.140;2023-05-23T08:34:20;8.57;;;2.90;;
18142;SDS011;9197;50.930;3.140;2023-05-23T08:36:47;7.60;;;3.10;;
18142;SDS011;9197;50.930;3.140;2023-05-23T08:39:16;5.20;;;2.13;;
18142;SDS011;9197;50.930;3.140;2023-05-23T08:41:44;6.93;;;3.33;;
18142;SDS011;9197;50.930;3.140;2023-05-23T08:44:11;7.27;;;3.03;;
18142;SDS011;9197;50.930;3.140;2023-05-23T08:46:39;11.03;;;2.73;;
18142;SDS011;9197;50.930;3.140;2023-05-23T08:49:10;9.07;;;2.83;;
18142;SDS011;9197;50.930;3.140;2023-05-23T08:51:41;5.37;;;2.93;;
18142;SDS011;9197;50.930;3.140;2023-05-23T08:54:09;7.63;;;3.40;;
18142;SDS011;9197;50.930;3.140;2023-05-23T08:56:39;8.63;;;2.60;;
18142;SDS011;9197;50.930;3.140;2023-05-23T08:59:08;7.27;;;2.40;;
18142;SDS011;9197;50.930;3.140;2023-05-23T09:01:35;9.07;;;2.70;;
18142;SDS011;9197;50.930;3.140;2023-05-23T09:04:05;6.27;;;2.60;;
18142;SDS011;9197;50.930;3.140;2023-05-23T09:06:33;8.70;;;3.63;;
18142;SDS011;9197;50.930;3.140;2023-05-23T09:09:00;8.47;;;2.80;;
18142;SDS011;9197;50.930;3.140;2023-05-23T09:11:28;8.63;;;2.43;;
18142;SDS011;9197;50.930;3.140;2023-05-23T09:14:00;12.87;;;3.10;;
18142;SDS011;9197;50.930;3.140;2023-05-23T09:16:32;15.70;;;3.50;;
18142;SDS011;9197;50.930;3.140;2023-05-23T09:19:00;12.50;;;2.87;;
18142;SDS011;9197;50.930;3.140;2023-05-23T09:21:36;10.10;;;3.53;;
18142;SDS011;9197;50.930;3.140;2023-05-23T09:24:04;11.33;;;3.37;;
18142;SDS011;9197;50.930;3.140;2023-05-23T09:26:31;12.70;;;3.30;;
18142;SDS011;9197;50.930;3.140;2023-05-23T09:29:00;11.63;;;3.10;;
18142;SDS011;9197;50.930;3.140;2023-05-23T09:31:31;16.00;;;3.63;;
18142;SDS011;9197;50.930;3.140;2023-05-23T09:33:58;14.70;;;4.57;;
18142;SDS011;9197;50.930;3.140;2023-05-23T09:36:26;10.77;;;4.03;;
18142;SDS011;9197;50.930;3.140;2023-05-23T09:38:54;14.37;;;3.80;;
18142;SDS011;9197;50.930;3.140;2023-05-23T09:41:22;13.27;;;4.10;;
18142;SDS011;9197;50.930;3.140;2023-05-23T09:43:50;15.50;;;4.57;;
18142;SDS011;9197;50.930;3.140;2023-05-23T09:46:20;8.80;;;3.67;;
18142;SDS011;9197;50.930;3.140;2023-05-23T09:48:47;13.07;;;4.13;;
18142;SDS011;9197;50.930;3.140;2023-05-23T09:51:17;13.43;;;4.30;;
18142;SDS011;9197;50.930;3.140;2023-05-23T09:53:46;11.93;;;4.20;;
18142;SDS011;9197;50.930;3.140;2023-05-23T09:56:14;6.82;;;3.20;;
18142;SDS011;9197;50.930;3.140;2023-05-23T09:58:42;10.80;;;3.75;;
18142;SDS011;9197;50.930;3.140;2023-05-23T10:01:10;12.03;;;3.70;;
18142;SDS011;9197;50.930;3.140;2023-05-23T10:03:43;14.70;;;5.23;;
18142;SDS011;9197;50.930;3.140;2023-05-23T10:06:13;12.98;;;3.72;;
18142;SDS011;9197;50.930;3.140;2023-05-23T10:08:42;13.17;;;4.00;;
18142;SDS011;9197;50.930;3.140;2023-05-23T10:13:59;12.57;;;3.80;;
18142;SDS011;9197;50.930;3.140;2023-05-23T10:16:29;14.77;;;4.40;;
18142;SDS011;9197;50.930;3.140;2023-05-23T10:19:00;10.50;;;4.17;;
18142;SDS011;9197;50.930;3.140;2023-05-23T10:21:29;13.48;;;4.70;;
18142;SDS011;9197;50.930;3.140;2023-05-23T10:24:00;11.25;;;3.63;;
18142;SDS011;9197;50.930;3.140;2023-05-23T10:26:29;14.73;;;3.63;;
18142;SDS011;9197;50.930;3.140;2023-05-23T10:28:57;13.50;;;3.95;;
18142;SDS011;9197;50.930;3.140;2023-05-23T10:31:25;11.02;;;3.33;;
18142;SDS011;9197;50.930;3.140;2023-05-23T10:33:54;14.60;;;4.60;;
18142;SDS011;9197;50.930;3.140;2023-05-23T10:36:26;10.75;;;3.90;;
18142;SDS011;9197;50.930;3.140;2023-05-23T10:38:57;10.48;;;4.25;;
18142;SDS011;9197;50.930;3.140;2023-05-23T10:41:30;7.10;;;3.50;;
18142;SDS011;9197;50.930;3.140;2023-05-23T10:44:01;11.82;;;3.83;;
18142;SDS011;9197;50.930;3.140;2023-05-23T10:49:12;13.73;;;4.50;;
18142;SDS011;9197;50.930;3.140;2023-05-23T10:51:41;13.32;;;3.72;;
18142;SDS011;9197;50.930;3.140;2023-05-23T10:54:09;16.20;;;4.35;;
18142;SDS011;9197;50.930;3.140;2023-05-23T10:56:37;10.65;;;3.70;;
18142;SDS011;9197;50.930;3.140;2023-05-23T10:59:04;14.20;;;4.30;;
18142;SDS011;9197;50.930;3.140;2023-05-23T11:01:32;11.00;;;3.88;;
18142;SDS011;9197;50.930;3.140;2023-05-23T11:04:05;11.02;;;4.15;;
18142;SDS011;9197;50.930;3.140;2023-05-23T11:06:36;11.90;;;3.80;;
18142;SDS011;9197;50.930;3.140;2023-05-23T11:09:08;11.20;;;4.20;;
18142;SDS011;9197;50.930;3.140;2023-05-23T11:11:58;8.90;;;3.95;;
18142;SDS011;9197;50.930;3.140;2023-05-23T11:14:33;13.27;;;3.30;;
18142;SDS011;9197;50.930;3.140;2023-05-23T11:17:13;11.20;;;3.67;;
18142;SDS011;9197;50.930;3.140;2023-05-23T11:19:54;9.32;;;3.28;;
18142;SDS011;9197;50.930;3.140;2023-05-23T11:22:25;11.10;;;3.83;;
18142;SDS011;9197;50.930;3.140;2023-05-23T11:24:55;11.10;;;3.50;;
18142;SDS011;9197;50.930;3.140;2023-05-23T11:27:26;12.25;;;3.75;;
18142;SDS011;9197;50.930;3.140;2023-05-23T11:29:57;10.07;;;3.90;;
18142;SDS011;9197;50.930;3.140;2023-05-23T11:32:26;11.88;;;3.25;;
18142;SDS011;9197;50.930;3.140;2023-05-23T11:34:54;8.50;;;3.90;;
18142;SDS011;9197;50.930;3.140;2023-05-23T11:37:22;11.73;;;3.42;;
18142;SDS011;9197;50.930;3.140;2023-05-23T11:39:49;12.20;;;4.57;;
18142;SDS011;9197;50.930;3.140;2023-05-23T11:42:18;9.70;;;3.88;;
18142;SDS011;9197;50.930;3.140;2023-05-23T11:44:47;6.85;;;2.97;;
18142;SDS011;9197;50.930;3.140;2023-05-23T11:47:15;11.98;;;3.90;;
18142;SDS011;9197;50.930;3.140;2023-05-23T11:49:43;10.68;;;3.40;;
18142;SDS011;9197;50.930;3.140;2023-05-23T11:52:11;11.50;;;3.60;;
18142;SDS011;9197;50.930;3.140;2023-05-23T11:54:39;9.65;;;3.60;;
18142;SDS011;9197;50.930;3.140;2023-05-23T11:57:07;9.48;;;3.72;;
18142;SDS011;9197;50.930;3.140;2023-05-23T11:59:36;13.43;;;4.25;;
18142;SDS011;9197;50.930;3.140;2023-05-23T12:02:05;8.40;;;3.67;;
18142;SDS011;9197;50.930;3.140;2023-05-23T12:04:33;12.45;;;3.92;;
18142;SDS011;9197;50.930;3.140;2023-05-23T12:07:03;10.82;;;4.15;;
18142;SDS011;9197;50.930;3.140;2023-05-23T12:09:31;12.20;;;3.95;;
18142;SDS011;9197;50.930;3.140;2023-05-23T12:11:59;10.13;;;3.47;;
18142;SDS011;9197;50.930;3.140;2023-05-23T12:14:27;13.75;;;3.53;;
18142;SDS011;9197;50.930;3.140;2023-05-23T12:16:56;11.82;;;3.65;;
18142;SDS011;9197;50.930;3.140;2023-05-23T12:19:24;14.25;;;3.90;;
18142;SDS011;9197;50.930;3.140;2023-05-23T12:21:51;11.38;;;3.58;;
18142;SDS011;9197;50.930;3.140;2023-05-23T12:24:19;16.27;;;3.65;;
18142;SDS011;9197;50.930;3.140;2023-05-23T12:26:50;11.80;;;3.92;;
18142;SDS011;9197;50.930;3.140;2023-05-23T12:29:18;13.57;;;4.13;;
18142;SDS011;9197;50.930;3.140;2023-05-23T12:31:49;9.95;;;4.03;;
18142;SDS011;9197;50.930;3.140;2023-05-23T12:34:19;12.23;;;3.65;;
18142;SDS011;9197;50.930;3.140;2023-05-23T12:36:47;9.77;;;4.00;;
18142;SDS011;9197;50.930;3.140;2023-05-23T12:39:22;12.30;;;3.13;;
18142;SDS011;9197;50.930;3.140;2023-05-23T12:41:50;8.27;;;3.83;;
18142;SDS011;9197;50.930;3.140;2023-05-23T12:44:20;8.32;;;3.10;;
18142;SDS011;9197;50.930;3.140;2023-05-23T12:46:47;10.98;;;3.45;;
18142;SDS011;9197;50.930;3.140;2023-05-23T12:49:15;9.65;;;3.63;;
18142;SDS011;9197;50.930;3.140;2023-05-23T12:51:43;12.32;;;4.35;;
18142;SDS011;9197;50.930;3.140;2023-05-23T12:54:11;7.80;;;2.45;;
18142;SDS011;9197;50.930;3.140;2023-05-23T12:56:38;13.18;;;4.78;;
18142;SDS011;9197;50.930;3.140;2023-05-23T12:59:05;16.98;;;3.75;;
18142;SDS011;9197;50.930;3.140;2023-05-23T13:01:33;11.73;;;3.33;;
18142;SDS011;9197;50.930;3.140;2023-05-23T13:04:00;20.13;;;4.53;;
18142;SDS011;9197;50.930;3.140;2023-05-23T13:06:28;11.93;;;3.75;;
18142;SDS011;9197;50.930;3.140;2023-05-23T13:08:56;10.77;;;3.28;;
18142;SDS011;9197;50.930;3.140;2023-05-23T13:11:23;12.38;;;4.13;;
18142;SDS011;9197;50.930;3.140;2023-05-23T13:13:51;13.63;;;4.03;;
18142;SDS011;9197;50.930;3.140;2023-05-23T13:16:18;10.75;;;3.63;;
18142;SDS011;9197;50.930;3.140;2023-05-23T13:18:46;9.43;;;2.80;;
18142;SDS011;9197;50.930;3.140;2023-05-23T13:21:13;10.10;;;3.13;;
18142;SDS011;9197;50.930;3.140;2023-05-23T13:23:40;14.23;;;3.85;;
18142;SDS011;9197;50.930;3.140;2023-05-23T13:26:09;9.07;;;2.97;;
18142;SDS011;9197;50.930;3.140;2023-05-23T13:28:36;9.07;;;3.08;;
18142;SDS011;9197;50.930;3.140;2023-05-23T13:31:04;11.93;;;2.95;;
18142;SDS011;9197;50.930;3.140;2023-05-23T13:33:31;17.35;;;4.38;;
18142;SDS011;9197;50.930;3.140;2023-05-23T13:35:58;14.68;;;3.97;;
18142;SDS011;9197;50.930;3.140;2023-05-23T13:38:26;8.02;;;3.60;;
18142;SDS011;9197;50.930;3.140;2023-05-23T13:40:54;13.23;;;3.30;;
18142;SDS011;9197;50.930;3.140;2023-05-23T13:43:23;10.90;;;3.38;;
18142;SDS011;9197;50.930;3.140;2023-05-23T13:45:50;13.77;;;4.10;;
18142;SDS011;9197;50.930;3.140;2023-05-23T13:48:18;12.77;;;2.85;;
18142;SDS011;9197;50.930;3.140;2023-05-23T13:50:46;14.95;;;4.45;;
18142;SDS011;9197;50.930;3.140;2023-05-23T13:53:14;10.13;;;3.10;;
18142;SDS011;9197;50.930;3.140;2023-05-23T13:55:41;8.60;;;3.35;;
18142;SDS011;9197;50.930;3.140;2023-05-23T13:58:09;7.32;;;3.03;;
18142;SDS011;9197;50.930;3.140;2023-05-23T14:00:39;10.95;;;3.20;;
18142;SDS011;9197;50.930;3.140;2023-05-23T14:03:06;11.02;;;3.92;;
18142;SDS011;9197;50.930;3.140;2023-05-23T14:05:34;9.75;;;3.75;;
18142;SDS011;9197;50.930;3.140;2023-05-23T14:08:01;16.77;;;3.55;;
18142;SDS011;9197;50.930;3.140;2023-05-23T14:10:29;12.70;;;4.03;;
18142;SDS011;9197;50.930;3.140;2023-05-23T14:12:57;10.98;;;3.20;;
18142;SDS011;9197;50.930;3.140;2023-05-23T14:15:25;13.55;;;4.00;;
18142;SDS011;9197;50.930;3.140;2023-05-23T14:17:54;14.32;;;3.15;;
18142;SDS011;9197;50.930;3.140;2023-05-23T14:20:21;14.40;;;3.28;;
18142;SDS011;9197;50.930;3.140;2023-05-23T14:22:48;10.75;;;3.25;;
18142;SDS011;9197;50.930;3.140;2023-05-23T14:25:16;11.25;;;3.30;;
18142;SDS011;9197;50.930;3.140;2023-05-23T14:27:43;9.00;;;3.05;;
18142;SDS011;9197;50.930;3.140;2023-05-23T14:30:11;13.82;;;3.92;;
18142;SDS011;9197;50.930;3.140;2023-05-23T14:32:38;12.20;;;3.45;;
18142;SDS011;9197;50.930;3.140;2023-05-23T14:35:08;11.20;;;3.05;;
18142;SDS011;9197;50.930;3.140;2023-05-23T14:37:35;9.43;;;3.35;;
18142;SDS011;9197;50.930;3.140;2023-05-23T14:40:03;9.95;;;3.03;;
18142;SDS011;9197;50.930;3.140;2023-05-23T14:42:31;15.05;;;4.15;;
18142;SDS011;9197;50.930;3.140;2023-05-23T14:44:58;8.20;;;2.83;;
18142;SDS011;9197;50.930;3.140;2023-05-23T14:47:25;12.95;;;3.70;;
18142;SDS011;9197;50.930;3.140;2023-05-23T14:49:53;8.57;;;3.37;;
18142;SDS011;9197;50.930;3.140;2023-05-23T14:52:22;13.00;;;3.53;;
18142;SDS011;9197;50.930;3.140;2023-05-23T14:54:49;9.25;;;3.42;;
18142;SDS011;9197;50.930;3.140;2023-05-23T14:57:16;8.27;;;3.70;;